createdAt,value
2022-08-02T00:01:06.258Z,18.42
2022-08-02T00:06:07.148Z,18.26
2022-08-02T00:11:09.216Z,18.37
2022-08-02T00:16:09.840Z,18.36
2022-08-02T00:21:10.498Z,18.26
2022-08-02T00:26:13.745Z,18.22
2022-08-02T00:31:14.400Z,18.15
2022-08-02T00:36:15.165Z,18.01
2022-08-02T00:41:19.080Z,17.87
2022-08-02T00:46:21.304Z,17.82
2022-08-02T00:51:21.905Z,17.72
2022-08-02T00:56:23.862Z,17.67
2022-08-02T01:01:38.536Z,17.59
2022-08-02T01:06:57.444Z,17.53
2022-08-02T01:12:02.800Z,17.46
2022-08-02T01:17:09.901Z,17.42
2022-08-02T01:22:39.441Z,17.47
2022-08-02T01:27:57.811Z,17.46
2022-08-02T01:33:02.952Z,17.38
2022-08-02T01:38:08.547Z,17.30
2022-08-02T01:43:12.216Z,17.31
2022-08-02T01:48:17.418Z,17.25
2022-08-02T01:53:21.273Z,17.11
2022-08-02T01:58:26.247Z,17.08
2022-08-02T02:03:30.168Z,17.02
2022-08-02T02:08:35.005Z,16.94
2022-08-02T02:13:40.748Z,16.89
2022-08-02T02:18:45.811Z,16.97
2022-08-02T02:23:47.179Z,16.94
2022-08-02T02:28:49.019Z,16.91
2022-08-02T02:33:53.696Z,17.06
2022-08-02T02:38:58.187Z,17.04
2022-08-02T02:44:02.798Z,17.00
2022-08-02T02:49:05.437Z,16.94
2022-08-02T02:54:30.114Z,16.78
2022-08-02T02:59:28.244Z,16.68
2022-08-02T03:04:36.177Z,16.61
2022-08-02T03:09:54.469Z,16.54
2022-08-02T03:14:56.214Z,16.52
2022-08-02T03:19:58.110Z,16.54
2022-08-02T03:24:58.699Z,16.73
2022-08-02T03:29:59.421Z,16.71
2022-08-02T03:35:02.329Z,17.01
2022-08-02T03:40:03.775Z,17.25
2022-08-02T03:45:08.683Z,17.38
2022-08-02T03:50:13.348Z,17.29
2022-08-02T03:55:14.510Z,16.97
2022-08-02T04:00:20.094Z,16.91
2022-08-02T04:05:22.114Z,16.77
2022-08-02T04:10:22.717Z,17.01
2022-08-02T04:15:25.393Z,16.99
2022-08-02T04:20:30.696Z,17.29
2022-08-02T04:25:35.785Z,17.48
2022-08-02T04:30:42.058Z,17.34
2022-08-02T04:35:44.611Z,17.37
2022-08-02T04:40:52.917Z,17.42
2022-08-02T04:45:54.886Z,17.55
2022-08-02T04:50:56.922Z,17.63
2022-08-02T04:55:57.605Z,17.69
2022-08-02T05:00:58.291Z,17.79
2022-08-02T05:06:00.695Z,18.12
2022-08-02T05:11:01.321Z,18.57
2022-08-02T05:16:03.481Z,18.86
2022-08-02T05:21:05.480Z,19.03
2022-08-02T05:26:06.151Z,18.89
2022-08-02T05:31:06.946Z,19.12
2022-08-02T05:36:16.653Z,19.06
2022-08-02T05:41:19.105Z,19.48
2022-08-02T05:46:19.786Z,19.58
2022-08-02T05:51:24.798Z,19.17
2022-08-02T05:56:33.795Z,19.26
2022-08-02T06:01:36.935Z,19.37
2022-08-02T06:06:44.371Z,19.28
2022-08-02T06:12:01.961Z,19.10
2022-08-02T06:17:05.733Z,19.08
2022-08-02T06:22:32.820Z,19.27
2022-08-02T06:27:37.686Z,19.25
2022-08-02T06:32:38.696Z,19.26
2022-08-02T06:37:54.507Z,19.53
2022-08-02T06:43:13.276Z,20.03
2022-08-02T06:48:14.153Z,20.62
2022-08-02T06:53:16.292Z,21.21
2022-08-02T06:58:16.952Z,21.32
2022-08-02T07:03:18.917Z,21.47
2022-08-02T07:08:21.537Z,21.39
2022-08-02T07:13:22.177Z,21.08
2022-08-02T07:18:23.654Z,20.84
2022-08-02T07:23:25.757Z,21.01
2022-08-02T07:28:26.472Z,21.27
2022-08-02T07:33:37.977Z,21.27
2022-08-02T07:38:41.163Z,21.39
2022-08-02T07:43:42.054Z,21.46
2022-08-02T07:48:47.217Z,21.74
2022-08-02T07:54:02.523Z,21.86
2022-08-02T07:59:05.445Z,22.10
2022-08-02T08:04:06.579Z,21.89
2022-08-02T08:09:08.621Z,22.23
2022-08-02T08:14:16.193Z,22.28
2022-08-02T08:19:17.431Z,22.50
2022-08-02T08:24:19.416Z,22.41
2022-08-02T08:29:20.122Z,22.68
2022-08-02T08:34:20.787Z,22.56
2022-08-02T08:39:22.761Z,22.99
2022-08-02T08:44:23.384Z,23.31
2022-08-02T08:49:27.445Z,23.45
2022-08-02T08:54:31.063Z,23.64
2022-08-02T08:59:31.915Z,23.65
2022-08-02T09:04:40.401Z,23.39
2022-08-02T09:09:51.250Z,23.55
2022-08-02T09:14:51.947Z,23.81
2022-08-02T09:20:07.874Z,23.84
2022-08-02T09:25:16.592Z,23.78
2022-08-02T09:30:17.685Z,24.05
2022-08-02T09:36:05.384Z,23.89
2022-08-02T09:40:55.140Z,24.14
2022-08-02T09:45:55.804Z,24.32
2022-08-02T09:50:57.420Z,24.19
2022-08-02T09:55:59.399Z,24.40
2022-08-02T10:01:01.117Z,24.69
2022-08-02T10:06:03.306Z,25.13
2022-08-02T10:11:05.462Z,25.46
2022-08-02T10:16:07.070Z,25.86
2022-08-02T10:21:09.408Z,25.97
2022-08-02T10:26:18.044Z,25.44
2022-08-02T10:31:24.040Z,25.16
2022-08-02T10:36:27.288Z,25.52
2022-08-02T10:41:50.157Z,25.76
2022-08-02T10:46:50.842Z,25.67
2022-08-02T10:52:09.330Z,25.90
2022-08-02T10:57:20.671Z,26.04
2022-08-02T11:02:36.605Z,25.71
2022-08-02T11:07:40.267Z,26.10
2022-08-02T11:13:04.314Z,26.75
2022-08-02T11:18:05.113Z,27.27
2022-08-02T11:23:44.266Z,26.88
2022-08-02T11:28:51.210Z,27.56
2022-08-02T11:33:53.239Z,28.20
2022-08-02T11:39:12.410Z,27.71
2022-08-02T11:44:18.335Z,27.20
2022-08-02T11:49:22.760Z,27.26
2022-08-02T11:54:27.867Z,27.15
2022-08-02T11:59:29.930Z,27.09
2022-08-02T12:04:30.787Z,26.92
2022-08-02T12:09:40.614Z,27.16
2022-08-02T12:14:44.679Z,27.23
2022-08-02T12:19:45.703Z,27.66
2022-08-02T12:24:48.859Z,27.64
2022-08-02T12:30:00.463Z,28.00
2022-08-02T12:35:10.797Z,28.07
2022-08-02T12:40:25.125Z,28.10
2022-08-02T12:45:40.678Z,28.06
2022-08-02T12:50:43.354Z,28.35
2022-08-02T12:56:01.046Z,28.37
2022-08-02T13:01:05.140Z,29.22
2022-08-02T13:06:22.876Z,29.51
2022-08-02T13:11:27.751Z,28.87
2022-08-02T13:16:31.601Z,28.71
2022-08-02T13:21:41.023Z,28.50
2022-08-02T13:26:52.945Z,28.76
2022-08-02T13:31:54.893Z,29.10
2022-08-02T13:36:55.507Z,28.92
2022-08-02T13:41:56.381Z,29.06
2022-08-02T13:46:58.347Z,28.97
2022-08-02T13:51:58.958Z,28.43
2022-08-02T13:56:59.614Z,28.54
2022-08-02T14:02:01.739Z,28.34
2022-08-02T14:07:02.513Z,29.10
2022-08-02T14:12:03.238Z,28.91
2022-08-02T14:17:05.356Z,28.61
2022-08-02T14:22:10.774Z,28.54
2022-08-02T14:27:13.566Z,28.59
2022-08-02T14:32:16.005Z,28.46
2022-08-02T14:37:16.967Z,28.42
2022-08-02T14:42:18.178Z,29.20
2022-08-02T14:47:20.165Z,29.38
2022-08-02T14:52:20.938Z,29.66
2022-08-02T14:57:21.553Z,30.11
2022-08-02T15:02:26.096Z,30.51
2022-08-02T15:07:26.820Z,29.98
2022-08-02T15:12:27.482Z,29.46
2022-08-02T15:17:29.445Z,29.16
2022-08-02T15:22:30.071Z,29.43
2022-08-02T15:27:31.705Z,30.13
2022-08-02T15:32:33.770Z,30.19
2022-08-02T15:37:38.215Z,30.36
2022-08-02T15:42:43.747Z,30.03
2022-08-02T15:47:48.275Z,29.90
2022-08-02T15:52:51.395Z,29.89
2022-08-02T15:57:52.031Z,29.81
2022-08-02T16:02:55.059Z,29.82
2022-08-02T16:07:55.682Z,30.10
2022-08-02T16:13:16.318Z,29.78
2022-08-02T16:18:18.256Z,30.15
2022-08-02T16:23:18.873Z,30.45
2022-08-02T16:28:39.647Z,30.10
2022-08-02T16:33:41.774Z,30.11
2022-08-02T16:38:42.566Z,31.10
2022-08-02T16:43:43.180Z,32.17
2022-08-02T16:48:51.060Z,32.80
2022-08-02T16:54:00.316Z,32.24
2022-08-02T16:59:01.347Z,32.26
2022-08-02T17:04:04.737Z,32.91
2022-08-02T17:09:06.450Z,32.33
2022-08-02T17:14:07.561Z,32.54
2022-08-02T17:19:12.013Z,31.25
2022-08-02T17:24:12.687Z,30.50
2022-08-02T17:34:37.383Z,29.30
2022-08-02T17:39:44.131Z,29.03
2022-08-02T17:44:53.972Z,29.28
2022-08-02T17:49:56.777Z,29.54
2022-08-02T17:54:57.663Z,29.54
2022-08-02T18:00:04.214Z,29.08
2022-08-02T18:05:11.908Z,28.56
2022-08-02T18:10:14.371Z,27.96
2022-08-02T18:15:16.275Z,27.79
2022-08-02T18:20:22.131Z,27.58
2022-08-02T18:25:37.192Z,27.30
2022-08-02T18:30:44.745Z,27.05
2022-08-02T18:35:47.365Z,26.74
2022-08-02T18:40:51.231Z,26.58
2022-08-02T18:46:15.759Z,26.31
2022-08-02T18:51:19.395Z,26.04
2022-08-02T18:56:24.210Z,25.73
2022-08-02T19:01:31.893Z,25.45
2022-08-02T19:06:35.336Z,25.32
2022-08-02T19:11:35.963Z,25.12
2022-08-02T19:16:38.235Z,24.84
2022-08-02T19:22:18.486Z,24.62
2022-08-02T19:27:09.073Z,24.39
2022-08-02T19:32:42.537Z,24.23
2022-08-02T19:37:39.357Z,24.09
2022-08-02T19:44:21.143Z,23.88
2022-08-02T19:48:06.444Z,23.72
2022-08-02T19:53:09.863Z,23.61
2022-08-02T19:58:12.191Z,23.46
2022-08-02T20:03:15.963Z,23.43
2022-08-02T20:08:31.661Z,23.28
2022-08-02T20:13:46.955Z,23.20
2022-08-02T20:18:48.021Z,23.04
2022-08-02T20:23:50.073Z,22.94
2022-08-02T20:28:51.273Z,22.90
2022-08-02T20:33:55.411Z,22.92
2022-08-02T20:38:58.320Z,22.93
2022-08-02T20:43:59.253Z,22.89
2022-08-02T20:49:03.631Z,22.92
2022-08-02T20:54:09.012Z,22.90
2022-08-02T21:04:31.396Z,22.81
2022-08-02T21:09:53.150Z,22.75
2022-08-02T21:14:54.317Z,22.63
2022-08-02T21:19:54.929Z,22.53
2022-08-02T21:24:56.993Z,22.55
2022-08-02T21:29:57.665Z,22.49
2022-08-02T21:34:58.636Z,22.45
2022-08-02T21:40:00.560Z,22.38
2022-08-02T21:45:01.201Z,22.30
2022-08-02T21:50:17.770Z,22.39
2022-08-02T21:55:21.154Z,22.24
2022-08-02T22:00:28.929Z,22.12
2022-08-02T22:05:29.729Z,21.86
2022-08-02T22:10:53.400Z,21.98
2022-08-02T22:15:57.541Z,21.91
2022-08-02T22:21:00.203Z,21.97
2022-08-02T22:26:02.402Z,21.81
2022-08-02T22:31:04.707Z,21.65
2022-08-02T22:36:07.249Z,21.63
2022-08-02T22:41:13.671Z,21.45
2022-08-02T22:51:34.948Z,21.41
2022-08-02T22:56:38.767Z,21.40
2022-08-02T22:58:49.403Z,29.93
2022-08-02T22:59:05.372Z,22.88
2022-08-02T22:59:09.787Z,21.41
2022-08-02T23:01:45.345Z,21.16
2022-08-02T23:06:45.977Z,21.20
2022-08-02T23:11:47.919Z,21.23
2022-08-02T23:17:05.930Z,21.08
2022-08-02T23:22:06.598Z,21.01
2022-08-02T23:27:08.626Z,20.98
2022-08-02T23:32:09.678Z,20.88
2022-08-02T23:37:10.408Z,20.72
2022-08-02T23:42:12.333Z,20.59
2022-08-02T23:47:12.938Z,20.44
2022-08-02T23:52:14.293Z,20.37
2022-08-02T23:57:20.904Z,20.43
